sensor_id;sensor_type;location;lat;lon;timestamp;pressure;altitude;pressure_sealevel;temperature
12430;BMP280;6279;42.192;24.326;2022-12-18T00:03:55;99733.34;;;11.15
12430;BMP280;6279;42.192;24.326;2022-12-18T00:06:21;99722.97;;;11.23
12430;BMP280;6279;42.192;24.326;2022-12-18T00:08:47;99733.97;;;11.34
12430;BMP280;6279;42.192;24.326;2022-12-18T00:11:15;99739.03;;;11.36
12430;BMP280;6279;42.192;24.326;2022-12-18T00:13:41;99741.81;;;11.42
12430;BMP280;6279;42.192;24.326;2022-12-18T00:16:09;99737.97;;;11.46
12430;BMP280;6279;42.192;24.326;2022-12-18T00:18:35;99746.94;;;11.51
12430;BMP280;6279;42.192;24.326;2022-12-18T00:21:05;99749.69;;;11.50
12430;BMP280;6279;42.192;24.326;2022-12-18T00:23:32;99747.25;;;11.48
12430;BMP280;6279;42.192;24.326;2022-12-18T00:25:59;99745.81;;;11.61
12430;BMP280;6279;42.192;24.326;2022-12-18T00:28:25;99755.00;;;11.65
12430;BMP280;6279;42.192;24.326;2022-12-18T00:30:50;99763.66;;;11.74
12430;BMP280;6279;42.192;24.326;2022-12-18T00:33:17;99757.66;;;11.81
12430;BMP280;6279;42.192;24.326;2022-12-18T00:35:42;99756.56;;;11.91
12430;BMP280;6279;42.192;24.326;2022-12-18T00:38:08;99758.19;;;11.92
12430;BMP280;6279;42.192;24.326;2022-12-18T00:40:33;99762.91;;;11.97
12430;BMP280;6279;42.192;24.326;2022-12-18T00:42:59;99770.28;;;12.01
12430;BMP280;6279;42.192;24.326;2022-12-18T00:45:26;99765.41;;;12.06
12430;BMP280;6279;42.192;24.326;2022-12-18T00:47:51;99766.72;;;12.10
12430;BMP280;6279;42.192;24.326;2022-12-18T00:50:18;99772.13;;;12.16
12430;BMP280;6279;42.192;24.326;2022-12-18T00:52:44;99770.63;;;12.06
12430;BMP280;6279;42.192;24.326;2022-12-18T00:55:10;99787.25;;;12.13
12430;BMP280;6279;42.192;24.326;2022-12-18T00:57:35;99784.38;;;12.16
12430;BMP280;6279;42.192;24.326;2022-12-18T01:00:01;99790.84;;;12.12
12430;BMP280;6279;42.192;24.326;2022-12-18T01:02:26;99786.97;;;12.16
12430;BMP280;6279;42.192;24.326;2022-12-18T01:04:52;99789.53;;;12.08
12430;BMP280;6279;42.192;24.326;2022-12-18T01:07:17;99790.50;;;12.07
12430;BMP280;6279;42.192;24.326;2022-12-18T01:09:42;99790.28;;;11.93
12430;BMP280;6279;42.192;24.326;2022-12-18T01:12:08;99789.91;;;11.80
12430;BMP280;6279;42.192;24.326;2022-12-18T01:14:33;99793.69;;;11.85
12430;BMP280;6279;42.192;24.326;2022-12-18T01:16:59;99790.72;;;11.81
12430;BMP280;6279;42.192;24.326;2022-12-18T01:19:24;99792.78;;;11.69
12430;BMP280;6279;42.192;24.326;2022-12-18T01:21:50;99794.22;;;11.64
12430;BMP280;6279;42.192;24.326;2022-12-18T01:24:15;99801.97;;;11.56
12430;BMP280;6279;42.192;24.326;2022-12-18T01:26:40;99801.47;;;11.53
12430;BMP280;6279;42.192;24.326;2022-12-18T01:29:06;99802.63;;;11.58
12430;BMP280;6279;42.192;24.326;2022-12-18T01:31:33;99809.13;;;11.54
12430;BMP280;6279;42.192;24.326;2022-12-18T01:34:04;99804.56;;;11.48
12430;BMP280;6279;42.192;24.326;2022-12-18T01:36:32;99795.09;;;11.47
12430;BMP280;6279;42.192;24.326;2022-12-18T01:39:04;99812.59;;;11.38
12430;BMP280;6279;42.192;24.326;2022-12-18T01:41:32;99815.88;;;11.39
12430;BMP280;6279;42.192;24.326;2022-12-18T01:50:15;99818.16;;;11.42
12430;BMP280;6279;42.192;24.326;2022-12-18T01:52:43;99803.81;;;11.39
12430;BMP280;6279;42.192;24.326;2022-12-18T01:55:11;99814.25;;;11.39
12430;BMP280;6279;42.192;24.326;2022-12-18T01:57:37;99817.06;;;11.45
12430;BMP280;6279;42.192;24.326;2022-12-18T02:00:13;99836.78;;;11.47
12430;BMP280;6279;42.192;24.326;2022-12-18T02:02:41;99830.91;;;11.45
12430;BMP280;6279;42.192;24.326;2022-12-18T02:05:07;99831.19;;;11.42
12430;BMP280;6279;42.192;24.326;2022-12-18T02:10:20;99824.41;;;11.49
12430;BMP280;6279;42.192;24.326;2022-12-18T02:13:02;99838.09;;;11.51
12430;BMP280;6279;42.192;24.326;2022-12-18T02:15:36;99829.34;;;11.60
12430;BMP280;6279;42.192;24.326;2022-12-18T02:18:11;99832.63;;;11.62
12430;BMP280;6279;42.192;24.326;2022-12-18T02:20:45;99830.00;;;11.62
12430;BMP280;6279;42.192;24.326;2022-12-18T02:26:18;99843.16;;;11.53
12430;BMP280;6279;42.192;24.326;2022-12-18T02:28:56;99840.56;;;11.53
12430;BMP280;6279;42.192;24.326;2022-12-18T02:31:26;99836.66;;;11.57
12430;BMP280;6279;42.192;24.326;2022-12-18T02:33:55;99846.28;;;11.56
12430;BMP280;6279;42.192;24.326;2022-12-18T02:36:22;99847.31;;;11.63
12430;BMP280;6279;42.192;24.326;2022-12-18T02:38:50;99846.84;;;11.67
12430;BMP280;6279;42.192;24.326;2022-12-18T02:41:17;99856.75;;;11.64
12430;BMP280;6279;42.192;24.326;2022-12-18T02:43:57;99844.56;;;11.64
12430;BMP280;6279;42.192;24.326;2022-12-18T02:49:09;99849.97;;;11.79
12430;BMP280;6279;42.192;24.326;2022-12-18T02:51:48;99847.50;;;11.69
12430;BMP280;6279;42.192;24.326;2022-12-18T02:54:51;99846.03;;;11.67
12430;BMP280;6279;42.192;24.326;2022-12-18T02:57:53;99853.78;;;11.59
12430;BMP280;6279;42.192;24.326;2022-12-18T03:00:22;99851.94;;;11.52
12430;BMP280;6279;42.192;24.326;2022-12-18T03:02:59;99852.25;;;11.49
12430;BMP280;6279;42.192;24.326;2022-12-18T03:05:33;99848.09;;;11.39
12430;BMP280;6279;42.192;24.326;2022-12-18T03:08:05;99851.44;;;11.31
12430;BMP280;6279;42.192;24.326;2022-12-18T03:10:35;99858.75;;;11.28
12430;BMP280;6279;42.192;24.326;2022-12-18T03:13:14;99857.38;;;11.24
12430;BMP280;6279;42.192;24.326;2022-12-18T03:15:45;99852.50;;;11.21
12430;BMP280;6279;42.192;24.326;2022-12-18T03:18:18;99866.78;;;11.17
12430;BMP280;6279;42.192;24.326;2022-12-18T03:20:45;99870.97;;;11.10
12430;BMP280;6279;42.192;24.326;2022-12-18T03:23:16;99868.63;;;11.07
12430;BMP280;6279;42.192;24.326;2022-12-18T03:25:44;99865.38;;;10.88
12430;BMP280;6279;42.192;24.326;2022-12-18T03:28:13;99874.59;;;10.83
12430;BMP280;6279;42.192;24.326;2022-12-18T03:30:40;99872.13;;;10.81
12430;BMP280;6279;42.192;24.326;2022-12-18T03:33:57;99880.91;;;10.80
12430;BMP280;6279;42.192;24.326;2022-12-18T03:36:24;99882.19;;;10.76
12430;BMP280;6279;42.192;24.326;2022-12-18T03:38:49;99890.13;;;10.75
12430;BMP280;6279;42.192;24.326;2022-12-18T03:41:22;99890.00;;;10.76
12430;BMP280;6279;42.192;24.326;2022-12-18T03:46:51;99895.72;;;10.53
12430;BMP280;6279;42.192;24.326;2022-12-18T03:49:35;99909.47;;;10.46
12430;BMP280;6279;42.192;24.326;2022-12-18T03:52:15;99916.06;;;10.41
12430;BMP280;6279;42.192;24.326;2022-12-18T03:54:43;99913.03;;;10.45
12430;BMP280;6279;42.192;24.326;2022-12-18T03:57:22;99915.56;;;10.37
12430;BMP280;6279;42.192;24.326;2022-12-18T03:59:53;99917.59;;;10.34
12430;BMP280;6279;42.192;24.326;2022-12-18T04:02:22;99925.41;;;10.34
12430;BMP280;6279;42.192;24.326;2022-12-18T04:04:51;99919.91;;;10.37
12430;BMP280;6279;42.192;24.326;2022-12-18T04:07:20;99937.06;;;10.30
12430;BMP280;6279;42.192;24.326;2022-12-18T04:09:48;99938.00;;;10.29
12430;BMP280;6279;42.192;24.326;2022-12-18T04:12:14;99948.69;;;10.26
12430;BMP280;6279;42.192;24.326;2022-12-18T04:14:40;99948.41;;;10.29
12430;BMP280;6279;42.192;24.326;2022-12-18T04:17:05;99956.78;;;10.23
12430;BMP280;6279;42.192;24.326;2022-12-18T04:19:30;99956.94;;;10.22
12430;BMP280;6279;42.192;24.326;2022-12-18T04:21:56;99964.88;;;10.20
12430;BMP280;6279;42.192;24.326;2022-12-18T04:24:21;99971.19;;;10.08
12430;BMP280;6279;42.192;24.326;2022-12-18T04:26:46;99974.47;;;10.10
12430;BMP280;6279;42.192;24.326;2022-12-18T04:29:12;99974.91;;;10.06
12430;BMP280;6279;42.192;24.326;2022-12-18T04:31:37;99975.88;;;10.05
12430;BMP280;6279;42.192;24.326;2022-12-18T04:34:03;99968.47;;;10.01
12430;BMP280;6279;42.192;24.326;2022-12-18T04:36:28;99975.19;;;9.94
12430;BMP280;6279;42.192;24.326;2022-12-18T04:38:54;99993.38;;;10.03
12430;BMP280;6279;42.192;24.326;2022-12-18T04:41:19;99989.97;;;10.03
12430;BMP280;6279;42.192;24.326;2022-12-18T04:43:45;99990.94;;;10.02
12430;BMP280;6279;42.192;24.326;2022-12-18T04:46:10;99998.97;;;10.08
12430;BMP280;6279;42.192;24.326;2022-12-18T04:48:36;99996.13;;;10.02
12430;BMP280;6279;42.192;24.326;2022-12-18T04:51:03;99999.66;;;10.01
12430;BMP280;6279;42.192;24.326;2022-12-18T04:53:28;100008.16;;;10.03
12430;BMP280;6279;42.192;24.326;2022-12-18T04:58:29;100020.44;;;10.01
12430;BMP280;6279;42.192;24.326;2022-12-18T05:00:54;100019.63;;;10.00
12430;BMP280;6279;42.192;24.326;2022-12-18T05:03:20;100029.19;;;10.00
12430;BMP280;6279;42.192;24.326;2022-12-18T05:05:49;100017.59;;;10.04
12430;BMP280;6279;42.192;24.326;2022-12-18T05:08:15;100031.41;;;10.04
12430;BMP280;6279;42.192;24.326;2022-12-18T05:10:40;100027.31;;;10.02
12430;BMP280;6279;42.192;24.326;2022-12-18T05:13:06;100028.81;;;9.95
12430;BMP280;6279;42.192;24.326;2022-12-18T05:15:32;100031.97;;;9.89
12430;BMP280;6279;42.192;24.326;2022-12-18T05:17:58;100030.19;;;9.89
12430;BMP280;6279;42.192;24.326;2022-12-18T05:20:24;100042.38;;;9.89
12430;BMP280;6279;42.192;24.326;2022-12-18T05:22:51;100048.91;;;9.93
12430;BMP280;6279;42.192;24.326;2022-12-18T05:25:17;100055.31;;;9.98
12430;BMP280;6279;42.192;24.326;2022-12-18T05:27:42;100056.81;;;10.01
12430;BMP280;6279;42.192;24.326;2022-12-18T05:30:09;100061.63;;;10.05
12430;BMP280;6279;42.192;24.326;2022-12-18T05:32:35;100064.91;;;10.07
12430;BMP280;6279;42.192;24.326;2022-12-18T05:35:00;100067.13;;;10.02
12430;BMP280;6279;42.192;24.326;2022-12-18T05:37:28;100064.38;;;10.04
12430;BMP280;6279;42.192;24.326;2022-12-18T05:39:53;100072.84;;;10.06
12430;BMP280;6279;42.192;24.326;2022-12-18T05:42:19;100075.16;;;10.08
12430;BMP280;6279;42.192;24.326;2022-12-18T05:44:44;100075.69;;;10.12
12430;BMP280;6279;42.192;24.326;2022-12-18T05:47:09;100081.28;;;10.17
12430;BMP280;6279;42.192;24.326;2022-12-18T05:49:35;100085.28;;;10.11
12430;BMP280;6279;42.192;24.326;2022-12-18T05:52:00;100086.91;;;10.12
12430;BMP280;6279;42.192;24.326;2022-12-18T05:54:29;100097.19;;;10.23
12430;BMP280;6279;42.192;24.326;2022-12-18T05:56:55;100096.63;;;10.29
12430;BMP280;6279;42.192;24.326;2022-12-18T05:59:20;100098.66;;;10.35
12430;BMP280;6279;42.192;24.326;2022-12-18T06:01:46;100098.25;;;10.39
12430;BMP280;6279;42.192;24.326;2022-12-18T06:04:12;100099.47;;;10.35
12430;BMP280;6279;42.192;24.326;2022-12-18T06:06:37;100106.88;;;10.40
12430;BMP280;6279;42.192;24.326;2022-12-18T06:09:02;100108.09;;;10.36
12430;BMP280;6279;42.192;24.326;2022-12-18T06:11:34;100108.94;;;10.27
12430;BMP280;6279;42.192;24.326;2022-12-18T06:13:59;100107.69;;;10.31
12430;BMP280;6279;42.192;24.326;2022-12-18T06:16:26;100117.28;;;10.40
12430;BMP280;6279;42.192;24.326;2022-12-18T06:18:52;100127.09;;;10.46
12430;BMP280;6279;42.192;24.326;2022-12-18T06:21:18;100133.38;;;10.52
12430;BMP280;6279;42.192;24.326;2022-12-18T06:23:43;100130.25;;;10.49
12430;BMP280;6279;42.192;24.326;2022-12-18T06:26:11;100132.03;;;10.49
12430;BMP280;6279;42.192;24.326;2022-12-18T06:28:36;100140.78;;;10.57
12430;BMP280;6279;42.192;24.326;2022-12-18T06:31:03;100150.63;;;10.53
12430;BMP280;6279;42.192;24.326;2022-12-18T06:33:29;100155.28;;;10.59
12430;BMP280;6279;42.192;24.326;2022-12-18T06:36:00;100153.38;;;10.61
12430;BMP280;6279;42.192;24.326;2022-12-18T06:38:26;100159.13;;;10.55
12430;BMP280;6279;42.192;24.326;2022-12-18T06:40:52;100162.53;;;10.65
12430;BMP280;6279;42.192;24.326;2022-12-18T06:43:17;100160.59;;;10.67
12430;BMP280;6279;42.192;24.326;2022-12-18T06:45:42;100168.44;;;10.58
12430;BMP280;6279;42.192;24.326;2022-12-18T06:48:08;100164.72;;;10.60
12430;BMP280;6279;42.192;24.326;2022-12-18T06:50:33;100173.63;;;10.67
12430;BMP280;6279;42.192;24.326;2022-12-18T06:52:59;100171.19;;;10.56
12430;BMP280;6279;42.192;24.326;2022-12-18T06:55:24;100171.97;;;10.75
12430;BMP280;6279;42.192;24.326;2022-12-18T06:57:50;100170.72;;;10.70
12430;BMP280;6279;42.192;24.326;2022-12-18T07:00:15;100173.47;;;10.78
12430;BMP280;6279;42.192;24.326;2022-12-18T07:02:41;100176.03;;;10.87
12430;BMP280;6279;42.192;24.326;2022-12-18T07:05:07;100173.41;;;10.96
12430;BMP280;6279;42.192;24.326;2022-12-18T07:07:33;100182.97;;;11.05
12430;BMP280;6279;42.192;24.326;2022-12-18T07:09:59;100178.16;;;11.10
12430;BMP280;6279;42.192;24.326;2022-12-18T07:12:24;100179.22;;;11.17
12430;BMP280;6279;42.192;24.326;2022-12-18T07:14:49;100184.38;;;11.36
12430;BMP280;6279;42.192;24.326;2022-12-18T07:17:15;100190.94;;;11.39
12430;BMP280;6279;42.192;24.326;2022-12-18T07:19:40;100187.91;;;11.44
12430;BMP280;6279;42.192;24.326;2022-12-18T07:22:06;100194.34;;;11.49
12430;BMP280;6279;42.192;24.326;2022-12-18T07:24:32;100188.66;;;11.63
12430;BMP280;6279;42.192;24.326;2022-12-18T07:26:59;100194.38;;;11.66
12430;BMP280;6279;42.192;24.326;2022-12-18T07:29:24;100196.84;;;11.68
12430;BMP280;6279;42.192;24.326;2022-12-18T07:31:49;100185.59;;;11.67
12430;BMP280;6279;42.192;24.326;2022-12-18T07:34:15;100196.50;;;11.80
12430;BMP280;6279;42.192;24.326;2022-12-18T07:36:40;100196.22;;;11.83
12430;BMP280;6279;42.192;24.326;2022-12-18T07:39:06;100192.25;;;11.96
12430;BMP280;6279;42.192;24.326;2022-12-18T07:41:31;100207.91;;;11.96
12430;BMP280;6279;42.192;24.326;2022-12-18T07:43:57;100203.75;;;12.03
12430;BMP280;6279;42.192;24.326;2022-12-18T07:46:22;100205.25;;;12.23
12430;BMP280;6279;42.192;24.326;2022-12-18T07:48:48;100214.28;;;12.28
12430;BMP280;6279;42.192;24.326;2022-12-18T07:51:13;100209.34;;;12.42
12430;BMP280;6279;42.192;24.326;2022-12-18T07:53:39;100211.91;;;12.34
12430;BMP280;6279;42.192;24.326;2022-12-18T07:56:07;100201.59;;;12.50
12430;BMP280;6279;42.192;24.326;2022-12-18T07:58:33;100214.94;;;12.81
12430;BMP280;6279;42.192;24.326;2022-12-18T08:01:06;100219.09;;;13.16
12430;BMP280;6279;42.192;24.326;2022-12-18T08:03:32;100215.66;;;13.41
12430;BMP280;6279;42.192;24.326;2022-12-18T08:05:59;100221.63;;;13.66
12430;BMP280;6279;42.192;24.326;2022-12-18T08:08:25;100225.72;;;13.69
12430;BMP280;6279;42.192;24.326;2022-12-18T08:10:50;100224.97;;;13.84
12430;BMP280;6279;42.192;24.326;2022-12-18T08:13:16;100231.03;;;13.84
12430;BMP280;6279;42.192;24.326;2022-12-18T08:15:41;100227.88;;;13.73
12430;BMP280;6279;42.192;24.326;2022-12-18T08:18:06;100226.91;;;14.23
12430;BMP280;6279;42.192;24.326;2022-12-18T08:20:32;100225.16;;;14.78
12430;BMP280;6279;42.192;24.326;2022-12-18T08:22:57;100229.28;;;15.65
12430;BMP280;6279;42.192;24.326;2022-12-18T08:25:23;100223.19;;;16.02
12430;BMP280;6279;42.192;24.326;2022-12-18T08:27:48;100223.44;;;16.45
12430;BMP280;6279;42.192;24.326;2022-12-18T08:30:14;100227.81;;;16.74
12430;BMP280;6279;42.192;24.326;2022-12-18T08:32:39;100236.00;;;16.57
12430;BMP280;6279;42.192;24.326;2022-12-18T08:35:05;100241.84;;;16.67
12430;BMP280;6279;42.192;24.326;2022-12-18T08:37:30;100247.75;;;16.46
12430;BMP280;6279;42.192;24.326;2022-12-18T08:39:56;100257.91;;;15.82
12430;BMP280;6279;42.192;24.326;2022-12-18T08:42:21;100250.31;;;15.49
12430;BMP280;6279;42.192;24.326;2022-12-18T08:45:05;100256.59;;;15.09
12430;BMP280;6279;42.192;24.326;2022-12-18T08:47:31;100254.97;;;15.00
12430;BMP280;6279;42.192;24.326;2022-12-18T08:49:56;100252.31;;;14.92
12430;BMP280;6279;42.192;24.326;2022-12-18T08:52:22;100253.31;;;14.84
12430;BMP280;6279;42.192;24.326;2022-12-18T08:54:47;100250.03;;;14.90
12430;BMP280;6279;42.192;24.326;2022-12-18T08:57:13;100248.09;;;14.99
12430;BMP280;6279;42.192;24.326;2022-12-18T08:59:38;100246.28;;;15.15
12430;BMP280;6279;42.192;24.326;2022-12-18T09:02:03;100252.16;;;15.17
12430;BMP280;6279;42.192;24.326;2022-12-18T09:04:29;100247.44;;;15.05
12430;BMP280;6279;42.192;24.326;2022-12-18T09:06:54;100245.16;;;15.02
12430;BMP280;6279;42.192;24.326;2022-12-18T09:09:19;100248.06;;;15.15
12430;BMP280;6279;42.192;24.326;2022-12-18T09:11:45;100247.88;;;15.40
12430;BMP280;6279;42.192;24.326;2022-12-18T09:14:10;100238.63;;;16.05
12430;BMP280;6279;42.192;24.326;2022-12-18T09:16:36;100243.75;;;16.28
12430;BMP280;6279;42.192;24.326;2022-12-18T09:19:03;100242.88;;;16.36
12430;BMP280;6279;42.192;24.326;2022-12-18T09:21:32;100237.91;;;15.81
12430;BMP280;6279;42.192;24.326;2022-12-18T09:23:57;100233.81;;;15.71
12430;BMP280;6279;42.192;24.326;2022-12-18T09:26:25;100243.06;;;16.56
12430;BMP280;6279;42.192;24.326;2022-12-18T09:28:51;100236.31;;;18.05
12430;BMP280;6279;42.192;24.326;2022-12-18T09:31:18;100240.00;;;18.80
12430;BMP280;6279;42.192;24.326;2022-12-18T09:33:44;100242.44;;;18.61
12430;BMP280;6279;42.192;24.326;2022-12-18T09:36:13;100249.22;;;18.00
12430;BMP280;6279;42.192;24.326;2022-12-18T09:38:38;100263.34;;;17.28
12430;BMP280;6279;42.192;24.326;2022-12-18T09:46:47;100249.13;;;16.05
12430;BMP280;6279;42.192;24.326;2022-12-18T09:49:16;100256.53;;;15.56
12430;BMP280;6279;42.192;24.326;2022-12-18T09:51:47;100263.78;;;15.38
12430;BMP280;6279;42.192;24.326;2022-12-18T09:54:41;100265.09;;;15.19
12430;BMP280;6279;42.192;24.326;2022-12-18T09:57:13;100268.91;;;15.09
12430;BMP280;6279;42.192;24.326;2022-12-18T09:59:40;100270.00;;;14.91
12430;BMP280;6279;42.192;24.326;2022-12-18T10:02:19;100259.03;;;14.64
12430;BMP280;6279;42.192;24.326;2022-12-18T10:10:18;100257.16;;;14.25
12430;BMP280;6279;42.192;24.326;2022-12-18T10:13:09;100253.88;;;14.23
12430;BMP280;6279;42.192;24.326;2022-12-18T10:15:58;100258.13;;;14.16
12430;BMP280;6279;42.192;24.326;2022-12-18T10:20:58;100260.09;;;14.22
12430;BMP280;6279;42.192;24.326;2022-12-18T10:26:43;100255.19;;;14.19
12430;BMP280;6279;42.192;24.326;2022-12-18T10:29:14;100272.50;;;14.12
12430;BMP280;6279;42.192;24.326;2022-12-18T10:31:40;100267.72;;;14.00
12430;BMP280;6279;42.192;24.326;2022-12-18T10:34:10;100267.84;;;13.91
12430;BMP280;6279;42.192;24.326;2022-12-18T10:36:36;100274.91;;;13.98
12430;BMP280;6279;42.192;24.326;2022-12-18T10:39:16;100268.50;;;13.93
12430;BMP280;6279;42.192;24.326;2022-12-18T10:41:41;100269.59;;;13.82
12430;BMP280;6279;42.192;24.326;2022-12-18T10:44:21;100272.53;;;13.55
12430;BMP280;6279;42.192;24.326;2022-12-18T10:46:54;100271.19;;;13.43
12430;BMP280;6279;42.192;24.326;2022-12-18T10:49:29;100273.63;;;13.19
12430;BMP280;6279;42.192;24.326;2022-12-18T10:52:13;100269.88;;;13.22
12430;BMP280;6279;42.192;24.326;2022-12-18T10:54:39;100270.44;;;13.25
12430;BMP280;6279;42.192;24.326;2022-12-18T10:57:16;100273.22;;;13.32
12430;BMP280;6279;42.192;24.326;2022-12-18T10:59:53;100272.25;;;13.33
12430;BMP280;6279;42.192;24.326;2022-12-18T11:02:35;100271.19;;;13.43
12430;BMP280;6279;42.192;24.326;2022-12-18T11:05:00;100280.41;;;13.30
12430;BMP280;6279;42.192;24.326;2022-12-18T11:07:47;100264.72;;;13.30
12430;BMP280;6279;42.192;24.326;2022-12-18T11:10:18;100265.97;;;13.43
12430;BMP280;6279;42.192;24.326;2022-12-18T11:12:44;100263.53;;;13.49
12430;BMP280;6279;42.192;24.326;2022-12-18T11:15:21;100277.25;;;13.43
12430;BMP280;6279;42.192;24.326;2022-12-18T11:17:50;100263.06;;;13.54
12430;BMP280;6279;42.192;24.326;2022-12-18T11:20:35;100258.75;;;13.70
12430;BMP280;6279;42.192;24.326;2022-12-18T11:23:11;100270.53;;;13.41
12430;BMP280;6279;42.192;24.326;2022-12-18T11:25:38;100268.63;;;13.26
12430;BMP280;6279;42.192;24.326;2022-12-18T11:30:50;100274.63;;;12.76
12430;BMP280;6279;42.192;24.326;2022-12-18T11:33:33;100265.94;;;12.59
12430;BMP280;6279;42.192;24.326;2022-12-18T11:36:01;100266.53;;;12.53
12430;BMP280;6279;42.192;24.326;2022-12-18T11:38:31;100272.56;;;12.36
12430;BMP280;6279;42.192;24.326;2022-12-18T11:41:05;100275.75;;;12.30
12430;BMP280;6279;42.192;24.326;2022-12-18T11:44:00;100276.75;;;12.47
12430;BMP280;6279;42.192;24.326;2022-12-18T11:46:36;100281.28;;;12.27
12430;BMP280;6279;42.192;24.326;2022-12-18T11:49:20;100278.97;;;12.25
12430;BMP280;6279;42.192;24.326;2022-12-18T11:54:39;100271.59;;;12.37
12430;BMP280;6279;42.192;24.326;2022-12-18T11:59:52;100274.63;;;12.76
12430;BMP280;6279;42.192;24.326;2022-12-18T12:10:48;100290.72;;;12.89
12430;BMP280;6279;42.192;24.326;2022-12-18T12:21:36;100296.38;;;12.68
12430;BMP280;6279;42.192;24.326;2022-12-18T12:29:45;100299.19;;;12.57
12430;BMP280;6279;42.192;24.326;2022-12-18T12:32:41;100309.38;;;12.50
12430;BMP280;6279;42.192;24.326;2022-12-18T12:40:42;100320.09;;;12.30
12430;BMP280;6279;42.192;24.326;2022-12-18T12:43:25;100326.81;;;12.16
12430;BMP280;6279;42.192;24.326;2022-12-18T12:45:55;100343.31;;;12.07
12430;BMP280;6279;42.192;24.326;2022-12-18T12:51:00;100350.81;;;11.83
12430;BMP280;6279;42.192;24.326;2022-12-18T12:53:31;100352.81;;;11.63
12430;BMP280;6279;42.192;24.326;2022-12-18T12:55:58;100353.50;;;11.65
12430;BMP280;6279;42.192;24.326;2022-12-18T13:01:40;100366.63;;;11.82
12430;BMP280;6279;42.192;24.326;2022-12-18T13:06:48;100380.03;;;11.78
12430;BMP280;6279;42.192;24.326;2022-12-18T13:09:15;100374.16;;;11.76
12430;BMP280;6279;42.192;24.326;2022-12-18T13:11:47;100369.63;;;11.78
12430;BMP280;6279;42.192;24.326;2022-12-18T13:14:37;100375.47;;;11.53
12430;BMP280;6279;42.192;24.326;2022-12-18T13:17:24;100382.06;;;11.48
12430;BMP280;6279;42.192;24.326;2022-12-18T13:20:13;100383.41;;;11.42
12430;BMP280;6279;42.192;24.326;2022-12-18T13:22:47;100385.19;;;11.42
12430;BMP280;6279;42.192;24.326;2022-12-18T13:25:34;100393.44;;;11.19
12430;BMP280;6279;42.192;24.326;2022-12-18T13:28:14;100385.75;;;11.17
12430;BMP280;6279;42.192;24.326;2022-12-18T13:38:40;100401.25;;;11.00
12430;BMP280;6279;42.192;24.326;2022-12-18T13:41:22;100397.28;;;10.96
12430;BMP280;6279;42.192;24.326;2022-12-18T13:43:49;100414.13;;;10.93
12430;BMP280;6279;42.192;24.326;2022-12-18T13:46:20;100416.75;;;10.93
12430;BMP280;6279;42.192;24.326;2022-12-18T13:51:41;100430.84;;;10.99
12430;BMP280;6279;42.192;24.326;2022-12-18T13:56:54;100428.91;;;10.83
12430;BMP280;6279;42.192;24.326;2022-12-18T13:59:33;100429.31;;;10.88
12430;BMP280;6279;42.192;24.326;2022-12-18T14:02:05;100431.78;;;10.80
12430;BMP280;6279;42.192;24.326;2022-12-18T14:04:35;100449.75;;;10.92
12430;BMP280;6279;42.192;24.326;2022-12-18T14:09:36;100431.91;;;10.88
12430;BMP280;6279;42.192;24.326;2022-12-18T14:12:02;100429.03;;;10.81
12430;BMP280;6279;42.192;24.326;2022-12-18T14:14:48;100444.78;;;10.80
12430;BMP280;6279;42.192;24.326;2022-12-18T14:17:16;100444.78;;;10.80
12430;BMP280;6279;42.192;24.326;2022-12-18T14:19:43;100445.06;;;10.86
12430;BMP280;6279;42.192;24.326;2022-12-18T14:22:24;100443.00;;;10.90
12430;BMP280;6279;42.192;24.326;2022-12-18T14:27:37;100458.78;;;10.97
12430;BMP280;6279;42.192;24.326;2022-12-18T14:30:24;100467.00;;;10.93
12430;BMP280;6279;42.192;24.326;2022-12-18T14:33:05;100464.28;;;10.95
12430;BMP280;6279;42.192;24.326;2022-12-18T14:35:32;100463.16;;;10.88
12430;BMP280;6279;42.192;24.326;2022-12-18T14:40:42;100462.84;;;10.72
12430;BMP280;6279;42.192;24.326;2022-12-18T14:43:11;100474.06;;;10.73
12430;BMP280;6279;42.192;24.326;2022-12-18T14:45:44;100469.13;;;10.70
12430;BMP280;6279;42.192;24.326;2022-12-18T14:48:20;100471.88;;;10.68
12430;BMP280;6279;42.192;24.326;2022-12-18T14:50:58;100478.84;;;10.68
12430;BMP280;6279;42.192;24.326;2022-12-18T14:53:38;100479.81;;;10.57
12430;BMP280;6279;42.192;24.326;2022-12-18T14:58:52;100472.97;;;10.66
12430;BMP280;6279;42.192;24.326;2022-12-18T15:01:25;100469.53;;;10.65
12430;BMP280;6279;42.192;24.326;2022-12-18T15:03:53;100479.53;;;10.60
12430;BMP280;6279;42.192;24.326;2022-12-18T15:06:29;100483.59;;;10.53
12430;BMP280;6279;42.192;24.326;2022-12-18T15:08:56;100488.78;;;10.53
12430;BMP280;6279;42.192;24.326;2022-12-18T15:13:54;100494.88;;;10.63
12430;BMP280;6279;42.192;24.326;2022-12-18T15:16:20;100500.34;;;10.60
12430;BMP280;6279;42.192;24.326;2022-12-18T15:18:45;100507.19;;;10.61
12430;BMP280;6279;42.192;24.326;2022-12-18T15:21:18;100498.25;;;10.54
12430;BMP280;6279;42.192;24.326;2022-12-18T15:26:10;100505.13;;;10.55
12430;BMP280;6279;42.192;24.326;2022-12-18T15:33:36;100516.97;;;10.39
12430;BMP280;6279;42.192;24.326;2022-12-18T15:36:07;100519.56;;;10.39
12430;BMP280;6279;42.192;24.326;2022-12-18T15:38:33;100530.19;;;10.36
12430;BMP280;6279;42.192;24.326;2022-12-18T15:40:59;100538.22;;;10.24
12430;BMP280;6279;42.192;24.326;2022-12-18T15:43:24;100536.31;;;10.26
12430;BMP280;6279;42.192;24.326;2022-12-18T15:46:00;100540.13;;;10.22
12430;BMP280;6279;42.192;24.326;2022-12-18T15:48:26;100542.28;;;10.17
12430;BMP280;6279;42.192;24.326;2022-12-18T15:50:52;100543.94;;;10.18
12430;BMP280;6279;42.192;24.326;2022-12-18T15:53:19;100548.50;;;10.06
12430;BMP280;6279;42.192;24.326;2022-12-18T15:55:44;100551.34;;;9.83
12430;BMP280;6279;42.192;24.326;2022-12-18T15:58:29;100566.19;;;9.61
12430;BMP280;6279;42.192;24.326;2022-12-18T16:00:55;100560.66;;;9.54
12430;BMP280;6279;42.192;24.326;2022-12-18T16:03:23;100567.19;;;9.49
12430;BMP280;6279;42.192;24.326;2022-12-18T16:05:48;100569.06;;;9.47
12430;BMP280;6279;42.192;24.326;2022-12-18T16:08:13;100569.31;;;9.44
12430;BMP280;6279;42.192;24.326;2022-12-18T16:10:39;100567.66;;;9.43
12430;BMP280;6279;42.192;24.326;2022-12-18T16:13:04;100574.53;;;9.33